sensor_id;sensor_type;location;lat;lon;timestamp;temperature;humidity
9201;DHT22;4635;48.686;9.008;2023-10-31T03:40:26;8.80;99.90
9201;DHT22;4635;48.686;9.008;2023-10-31T03:42:54;8.70;99.90
9201;DHT22;4635;48.686;9.008;2023-10-31T03:48:23;8.80;99.90
9201;DHT22;4635;48.686;9.008;2023-10-31T03:51:09;8.70;99.90
9201;DHT22;4635;48.686;9.008;2023-10-31T03:53:58;8.70;99.90
9201;DHT22;4635;48.686;9.008;2023-10-31T04:02:36;8.60;99.90
9201;DHT22;4635;48.686;9.008;2023-10-31T04:05:04;8.60;99.90
9201;DHT22;4635;48.686;9.008;2023-10-31T04:08:09;8.60;99.90
9201;DHT22;4635;48.686;9.008;2023-10-31T04:11:05;8.60;99.90
9201;DHT22;4635;48.686;9.008;2023-10-31T04:13:46;8.60;99.90
9201;DHT22;4635;48.686;9.008;2023-10-31T04:16:32;8.50;99.90
9201;DHT22;4635;48.686;9.008;2023-10-31T05:32:10;8.70;1.00
9201;DHT22;4635;48.686;9.008;2023-10-31T05:34:51;8.00;1.00
9201;DHT22;4635;48.686;9.008;2023-10-31T05:37:36;8.00;1.00
9201;DHT22;4635;48.686;9.008;2023-10-31T05:40:04;8.10;99.90
9201;DHT22;4635;48.686;9.008;2023-10-31T05:42:33;8.10;99.90
9201;DHT22;4635;48.686;9.008;2023-10-31T05:45:24;8.10;99.90
9201;DHT22;4635;48.686;9.008;2023-10-31T05:57:09;8.00;99.90
9201;DHT22;4635;48.686;9.008;2023-10-31T05:59:55;8.00;99.90
9201;DHT22;4635;48.686;9.008;2023-10-31T06:02:27;8.00;99.90
9201;DHT22;4635;48.686;9.008;2023-10-31T06:05:22;7.90;99.90
9201;DHT22;4635;48.686;9.008;2023-10-31T06:08:23;7.80;99.90
9201;DHT22;4635;48.686;9.008;2023-10-31T06:23:21;8.10;1.00
9201;DHT22;4635;48.686;9.008;2023-10-31T06:25:53;8.00;1.00
9201;DHT22;4635;48.686;9.008;2023-10-31T06:28:49;7.90;1.00
9201;DHT22;4635;48.686;9.008;2023-10-31T06:31:41;8.00;1.00
9201;DHT22;4635;48.686;9.008;2023-10-31T06:34:21;8.00;1.00
9201;DHT22;4635;48.686;9.008;2023-10-31T06:37:05;8.00;1.00
9201;DHT22;4635;48.686;9.008;2023-10-31T06:39:51;8.10;1.00
9201;DHT22;4635;48.686;9.008;2023-10-31T06:42:34;8.10;1.00
9201;DHT22;4635;48.686;9.008;2023-10-31T06:45:17;8.10;1.00
9201;DHT22;4635;48.686;9.008;2023-10-31T06:48:04;8.20;1.00
9201;DHT22;4635;48.686;9.008;2023-10-31T06:50:52;8.20;1.00
9201;DHT22;4635;48.686;9.008;2023-10-31T06:53:34;8.20;1.00
9201;DHT22;4635;48.686;9.008;2023-10-31T09:18:13;11.20;99.90
9201;DHT22;4635;48.686;9.008;2023-10-31T09:20:54;11.20;99.90
9201;DHT22;4635;48.686;9.008;2023-10-31T09:23:38;11.30;99.90
9201;DHT22;4635;48.686;9.008;2023-10-31T09:32:35;11.20;99.90
9201;DHT22;4635;48.686;9.008;2023-10-31T14:46:07;12.40;99.90
9201;DHT22;4635;48.686;9.008;2023-10-31T14:48:35;12.30;99.90
9201;DHT22;4635;48.686;9.008;2023-10-31T14:51:17;12.20;99.90
9201;DHT22;4635;48.686;9.008;2023-10-31T14:53:59;12.30;99.90
9201;DHT22;4635;48.686;9.008;2023-10-31T15:35:39;10.60;1.00
9201;DHT22;4635;48.686;9.008;2023-10-31T15:38:21;10.50;1.00
9201;DHT22;4635;48.686;9.008;2023-10-31T15:41:04;10.30;1.00
9201;DHT22;4635;48.686;9.008;2023-10-31T15:43:53;10.20;1.00
9201;DHT22;4635;48.686;9.008;2023-10-31T15:46:34;10.20;1.00
9201;DHT22;4635;48.686;9.008;2023-10-31T15:49:31;10.10;8.80
9201;DHT22;4635;48.686;9.008;2023-10-31T16:10:09;10.10;99.90
9201;DHT22;4635;48.686;9.008;2023-10-31T16:12:38;9.90;99.90
9201;DHT22;4635;48.686;9.008;2023-10-31T16:15:37;9.90;99.90
9201;DHT22;4635;48.686;9.008;2023-10-31T16:18:31;9.90;99.90
9201;DHT22;4635;48.686;9.008;2023-10-31T16:21:16;9.90;99.90
9201;DHT22;4635;48.686;9.008;2023-10-31T16:24:00;9.80;99.90
9201;DHT22;4635;48.686;9.008;2023-10-31T16:26:44;9.80;99.90
9201;DHT22;4635;48.686;9.008;2023-10-31T16:29:26;9.70;99.90
9201;DHT22;4635;48.686;9.008;2023-10-31T16:31:59;9.70;1.00
9201;DHT22;4635;48.686;9.008;2023-10-31T16:34:42;9.70;1.00
9201;DHT22;4635;48.686;9.008;2023-10-31T16:37:28;9.60;1.00
9201;DHT22;4635;48.686;9.008;2023-10-31T16:40:11;9.60;99.90
9201;DHT22;4635;48.686;9.008;2023-10-31T16:45:53;9.50;1.00
9201;DHT22;4635;48.686;9.008;2023-10-31T16:48:22;9.50;1.00
9201;DHT22;4635;48.686;9.008;2023-10-31T16:51:29;9.50;1.00
9201;DHT22;4635;48.686;9.008;2023-10-31T16:54:12;9.50;1.00
9201;DHT22;4635;48.686;9.008;2023-10-31T16:56:47;9.40;1.00
9201;DHT22;4635;48.686;9.008;2023-10-31T16:59:48;9.10;1.00
9201;DHT22;4635;48.686;9.008;2023-10-31T17:08:42;9.00;1.00
9201;DHT22;4635;48.686;9.008;2023-10-31T17:11:37;9.30;1.00
9201;DHT22;4635;48.686;9.008;2023-10-31T17:14:13;9.50;1.00
9201;DHT22;4635;48.686;9.008;2023-10-31T17:16:44;9.30;1.00
9201;DHT22;4635;48.686;9.008;2023-10-31T17:19:27;9.20;1.00
9201;DHT22;4635;48.686;9.008;2023-10-31T17:21:58;9.30;1.00
9201;DHT22;4635;48.686;9.008;2023-10-31T17:27:21;9.50;1.00
9201;DHT22;4635;48.686;9.008;2023-10-31T17:30:06;9.40;99.90
9201;DHT22;4635;48.686;9.008;2023-10-31T17:33:13;9.30;99.90
9201;DHT22;4635;48.686;9.008;2023-10-31T17:35:42;9.30;99.90
9201;DHT22;4635;48.686;9.008;2023-10-31T17:52:51;8.80;1.00
9201;DHT22;4635;48.686;9.008;2023-10-31T17:55:20;10.50;1.00
9201;DHT22;4635;48.686;9.008;2023-10-31T17:58:05;9.10;1.00
9201;DHT22;4635;48.686;9.008;2023-10-31T18:00:35;9.00;99.90
9201;DHT22;4635;48.686;9.008;2023-10-31T18:03:16;9.10;1.00
9201;DHT22;4635;48.686;9.008;2023-10-31T18:05:56;9.20;99.90
9201;DHT22;4635;48.686;9.008;2023-10-31T18:08:31;9.30;99.90
9201;DHT22;4635;48.686;9.008;2023-10-31T18:11:01;9.20;99.90
9201;DHT22;4635;48.686;9.008;2023-10-31T18:13:40;9.30;99.90
9201;DHT22;4635;48.686;9.008;2023-10-31T18:16:08;9.30;99.90
9201;DHT22;4635;48.686;9.008;2023-10-31T18:18:44;9.30;99.90
9201;DHT22;4635;48.686;9.008;2023-10-31T18:21:13;9.30;99.90
9201;DHT22;4635;48.686;9.008;2023-10-31T18:26:35;9.20;1.00
9201;DHT22;4635;48.686;9.008;2023-10-31T18:29:09;9.20;1.00
9201;DHT22;4635;48.686;9.008;2023-10-31T18:31:50;9.20;1.00
9201;DHT22;4635;48.686;9.008;2023-10-31T18:34:26;9.20;1.00
9201;DHT22;4635;48.686;9.008;2023-10-31T18:37:18;9.10;1.00
9201;DHT22;4635;48.686;9.008;2023-10-31T18:39:46;9.10;1.00
9201;DHT22;4635;48.686;9.008;2023-10-31T18:42:18;9.20;1.00
9201;DHT22;4635;48.686;9.008;2023-10-31T18:44:48;9.20;1.00
9201;DHT22;4635;48.686;9.008;2023-10-31T18:47:46;9.20;1.00
9201;DHT22;4635;48.686;9.008;2023-10-31T18:50:23;8.90;1.00
9201;DHT22;4635;48.686;9.008;2023-10-31T18:53:05;9.30;1.00
9201;DHT22;4635;48.686;9.008;2023-10-31T18:55:35;9.30;1.00
9201;DHT22;4635;48.686;9.008;2023-10-31T19:03:47;9.30;1.00
9201;DHT22;4635;48.686;9.008;2023-10-31T19:06:33;9.40;1.00
9201;DHT22;4635;48.686;9.008;2023-10-31T19:09:12;9.50;1.00
9201;DHT22;4635;48.686;9.008;2023-10-31T19:11:41;9.50;1.00
9201;DHT22;4635;48.686;9.008;2023-10-31T19:14:13;9.50;1.00
9201;DHT22;4635;48.686;9.008;2023-10-31T19:16:43;9.60;1.00
9201;DHT22;4635;48.686;9.008;2023-10-31T19:19:20;9.50;1.00
9201;DHT22;4635;48.686;9.008;2023-10-31T19:21:47;9.50;1.00
9201;DHT22;4635;48.686;9.008;2023-10-31T19:24:28;9.40;99.90
9201;DHT22;4635;48.686;9.008;2023-10-31T19:27:17;9.50;99.90
9201;DHT22;4635;48.686;9.008;2023-10-31T19:30:01;9.50;99.90
9201;DHT22;4635;48.686;9.008;2023-10-31T19:32:32;9.60;99.90
9201;DHT22;4635;48.686;9.008;2023-10-31T19:38:00;9.60;99.90
9201;DHT22;4635;48.686;9.008;2023-10-31T19:40:27;9.60;99.90
9201;DHT22;4635;48.686;9.008;2023-10-31T19:42:57;9.60;99.90
9201;DHT22;4635;48.686;9.008;2023-10-31T19:45:28;9.70;99.90
9201;DHT22;4635;48.686;9.008;2023-10-31T19:47:57;9.70;99.90
9201;DHT22;4635;48.686;9.008;2023-10-31T19:50:24;9.60;99.90
9201;DHT22;4635;48.686;9.008;2023-10-31T19:52:57;9.70;99.90
9201;DHT22;4635;48.686;9.008;2023-10-31T19:55:27;9.70;99.90
9201;DHT22;4635;48.686;9.008;2023-10-31T19:58:19;9.80;99.90
9201;DHT22;4635;48.686;9.008;2023-10-31T20:01:00;9.80;39.00
9201;DHT22;4635;48.686;9.008;2023-10-31T20:03:41;9.70;21.80
9201;DHT22;4635;48.686;9.008;2023-10-31T20:06:09;9.70;18.90
9201;DHT22;4635;48.686;9.008;2023-10-31T20:08:38;9.80;23.20
9201;DHT22;4635;48.686;9.008;2023-10-31T20:11:12;9.80;70.90
9201;DHT22;4635;48.686;9.008;2023-10-31T20:13:39;9.80;95.40
9201;DHT22;4635;48.686;9.008;2023-10-31T20:16:23;10.90;99.90
9201;DHT22;4635;48.686;9.008;2023-10-31T20:18:51;10.30;99.90
9201;DHT22;4635;48.686;9.008;2023-10-31T20:21:19;9.60;99.90
9201;DHT22;4635;48.686;9.008;2023-10-31T20:23:50;9.60;99.90
9201;DHT22;4635;48.686;9.008;2023-10-31T20:26:18;9.50;99.90
9201;DHT22;4635;48.686;9.008;2023-10-31T20:28:54;9.50;99.90
9201;DHT22;4635;48.686;9.008;2023-10-31T20:31:23;9.40;99.90
9201;DHT22;4635;48.686;9.008;2023-10-31T20:33:55;9.30;99.90
9201;DHT22;4635;48.686;9.008;2023-10-31T20:36:27;9.30;99.90
9201;DHT22;4635;48.686;9.008;2023-10-31T20:38:57;9.30;99.90
9201;DHT22;4635;48.686;9.008;2023-10-31T20:41:25;9.30;99.90
9201;DHT22;4635;48.686;9.008;2023-10-31T20:43:53;9.20;99.90
9201;DHT22;4635;48.686;9.008;2023-10-31T20:46:27;9.20;99.90
9201;DHT22;4635;48.686;9.008;2023-10-31T20:49:05;9.20;99.90
9201;DHT22;4635;48.686;9.008;2023-10-31T20:51:38;9.10;99.90
9201;DHT22;4635;48.686;9.008;2023-10-31T20:54:23;9.20;99.90
9201;DHT22;4635;48.686;9.008;2023-10-31T20:56:55;9.10;99.90
9201;DHT22;4635;48.686;9.008;2023-10-31T20:59:33;9.10;99.90
9201;DHT22;4635;48.686;9.008;2023-10-31T21:02:01;8.90;99.90
9201;DHT22;4635;48.686;9.008;2023-10-31T21:04:31;9.10;99.90
9201;DHT22;4635;48.686;9.008;2023-10-31T21:07:07;9.10;99.90
9201;DHT22;4635;48.686;9.008;2023-10-31T21:09:59;9.00;99.90
9201;DHT22;4635;48.686;9.008;2023-10-31T21:12:35;9.00;99.90
9201;DHT22;4635;48.686;9.008;2023-10-31T21:15:05;9.00;99.90
9201;DHT22;4635;48.686;9.008;2023-10-31T21:17:38;9.00;99.90
9201;DHT22;4635;48.686;9.008;2023-10-31T21:20:11;9.00;99.90
9201;DHT22;4635;48.686;9.008;2023-10-31T21:22:47;9.30;99.90
9201;DHT22;4635;48.686;9.008;2023-10-31T21:25:32;9.00;99.90
9201;DHT22;4635;48.686;9.008;2023-10-31T21:28:01;9.00;99.90
9201;DHT22;4635;48.686;9.008;2023-10-31T21:30:30;9.00;99.90
9201;DHT22;4635;48.686;9.008;2023-10-31T21:32:58;8.90;99.90
9201;DHT22;4635;48.686;9.008;2023-10-31T21:35:39;8.90;99.90
9201;DHT22;4635;48.686;9.008;2023-10-31T21:38:26;8.80;99.90
9201;DHT22;4635;48.686;9.008;2023-10-31T21:43:59;8.80;99.90
9201;DHT22;4635;48.686;9.008;2023-10-31T21:46:32;8.70;99.90
9201;DHT22;4635;48.686;9.008;2023-10-31T21:49:04;8.60;1.00
9201;DHT22;4635;48.686;9.008;2023-10-31T21:51:47;8.60;1.00
9201;DHT22;4635;48.686;9.008;2023-10-31T21:54:15;8.50;1.00
9201;DHT22;4635;48.686;9.008;2023-10-31T21:56:44;8.50;1.00
9201;DHT22;4635;48.686;9.008;2023-10-31T22:02:19;8.50;1.00
9201;DHT22;4635;48.686;9.008;2023-10-31T22:04:47;8.40;1.00
9201;DHT22;4635;48.686;9.008;2023-10-31T22:07:31;8.40;1.00
9201;DHT22;4635;48.686;9.008;2023-10-31T22:10:02;8.40;1.00
9201;DHT22;4635;48.686;9.008;2023-10-31T22:12:32;8.40;1.00
9201;DHT22;4635;48.686;9.008;2023-10-31T22:15:06;8.40;1.00
9201;DHT22;4635;48.686;9.008;2023-10-31T22:17:49;8.50;1.00
9201;DHT22;4635;48.686;9.008;2023-10-31T22:20:30;8.30;1.00
9201;DHT22;4635;48.686;9.008;2023-10-31T22:23:00;8.30;1.00
9201;DHT22;4635;48.686;9.008;2023-10-31T22:25:27;8.30;1.00
9201;DHT22;4635;48.686;9.008;2023-10-31T22:27:54;8.30;1.00
9201;DHT22;4635;48.686;9.008;2023-10-31T22:30:36;8.30;1.00
9201;DHT22;4635;48.686;9.008;2023-10-31T22:33:07;8.30;1.00
9201;DHT22;4635;48.686;9.008;2023-10-31T22:35:35;8.30;1.00
9201;DHT22;4635;48.686;9.008;2023-10-31T22:38:16;8.30;1.00
9201;DHT22;4635;48.686;9.008;2023-10-31T22:40:43;8.30;1.00
9201;DHT22;4635;48.686;9.008;2023-10-31T22:43:13;8.40;1.00
9201;DHT22;4635;48.686;9.008;2023-10-31T22:45:41;8.40;1.00
9201;DHT22;4635;48.686;9.008;2023-10-31T22:48:40;8.50;1.00
9201;DHT22;4635;48.686;9.008;2023-10-31T22:51:21;8.60;1.00
9201;DHT22;4635;48.686;9.008;2023-10-31T22:54:02;8.60;99.90
9201;DHT22;4635;48.686;9.008;2023-10-31T22:56:33;8.70;99.90
9201;DHT22;4635;48.686;9.008;2023-10-31T22:59:01;8.70;99.90
9201;DHT22;4635;48.686;9.008;2023-10-31T23:01:31;8.70;99.90
9201;DHT22;4635;48.686;9.008;2023-10-31T23:04:05;8.70;99.90
9201;DHT22;4635;48.686;9.008;2023-10-31T23:06:33;8.70;99.90
9201;DHT22;4635;48.686;9.008;2023-10-31T23:09:02;8.80;99.90
9201;DHT22;4635;48.686;9.008;2023-10-31T23:11:43;8.80;99.90
9201;DHT22;4635;48.686;9.008;2023-10-31T23:14:12;8.80;99.90
9201;DHT22;4635;48.686;9.008;2023-10-31T23:16:43;8.80;99.90
9201;DHT22;4635;48.686;9.008;2023-10-31T23:25:20;8.70;91.30
9201;DHT22;4635;48.686;9.008;2023-10-31T23:27:50;8.90;87.40
9201;DHT22;4635;48.686;9.008;2023-10-31T23:30:23;8.80;50.70
9201;DHT22;4635;48.686;9.008;2023-10-31T23:32:52;8.80;9.30
9201;DHT22;4635;48.686;9.008;2023-10-31T23:35:39;8.80;24.80
9201;DHT22;4635;48.686;9.008;2023-10-31T23:38:07;8.80;17.80
9201;DHT22;4635;48.686;9.008;2023-10-31T23:43:29;9.00;1.00
9201;DHT22;4635;48.686;9.008;2023-10-31T23:45:57;8.90;1.00
9201;DHT22;4635;48.686;9.008;2023-10-31T23:48:29;9.00;1.00
9201;DHT22;4635;48.686;9.008;2023-10-31T23:51:00;9.00;1.00
9201;DHT22;4635;48.686;9.008;2023-10-31T23:53:33;9.00;1.00
9201;DHT22;4635;48.686;9.008;2023-10-31T23:56:08;9.00;1.00
9201;DHT22;4635;48.686;9.008;2023-10-31T23:58:47;9.00;1.00
